createdAt,value
2023-01-11T00:00:44.679Z,996.79
2023-01-11T00:01:44.715Z,996.79
2023-01-11T00:02:44.657Z,996.82
2023-01-11T00:03:44.665Z,996.82
2023-01-11T00:04:44.656Z,996.89
2023-01-11T00:05:44.966Z,996.93
2023-01-11T00:06:44.648Z,996.98
2023-01-11T00:07:44.588Z,996.88
2023-01-11T00:08:44.587Z,996.89
2023-01-11T00:09:44.557Z,996.78
2023-01-11T00:10:44.593Z,996.86
2023-01-11T00:11:44.670Z,996.89
2023-01-11T00:12:44.537Z,996.80
2023-01-11T00:13:44.536Z,996.80
2023-01-11T00:14:44.519Z,996.74
2023-01-11T00:15:44.516Z,996.77
2023-01-11T00:16:44.499Z,996.79
2023-01-11T00:17:44.531Z,996.73
2023-01-11T00:18:44.494Z,996.77
2023-01-11T00:19:44.440Z,996.88
2023-01-11T00:20:44.484Z,996.88
2023-01-11T00:21:44.447Z,996.86
2023-01-11T00:22:44.665Z,996.82
2023-01-11T00:23:44.421Z,996.71
2023-01-11T00:24:44.391Z,996.76
2023-01-11T00:25:44.371Z,996.77
2023-01-11T00:26:44.405Z,996.73
2023-01-11T00:27:44.356Z,996.83
2023-01-11T00:28:44.601Z,996.85
2023-01-11T00:29:44.363Z,996.83
2023-01-11T00:30:44.349Z,996.84
2023-01-11T00:31:44.332Z,996.89
2023-01-11T00:32:44.338Z,996.78
2023-01-11T00:33:44.299Z,996.73
2023-01-11T00:34:44.699Z,996.84
2023-01-11T00:35:44.282Z,996.81
2023-01-11T00:36:44.269Z,996.75
2023-01-11T00:37:44.278Z,996.73
2023-01-11T00:38:44.262Z,996.68
2023-01-11T00:39:44.436Z,996.67
2023-01-11T00:40:44.202Z,996.76
2023-01-11T00:41:44.182Z,996.72
2023-01-11T00:42:44.191Z,996.68
2023-01-11T00:43:44.164Z,996.60
2023-01-11T00:44:44.191Z,996.53
2023-01-11T00:45:44.414Z,996.51
2023-01-11T00:46:44.161Z,996.55
2023-01-11T00:47:44.135Z,996.61
2023-01-11T00:48:44.122Z,996.50
2023-01-11T00:49:44.086Z,996.51
2023-01-11T00:50:44.085Z,996.51
2023-01-11T00:51:44.503Z,996.47
2023-01-11T00:52:44.095Z,996.56
2023-01-11T00:53:44.035Z,996.56
2023-01-11T00:54:44.046Z,996.57
2023-01-11T00:55:44.051Z,996.56
2023-01-11T00:56:44.040Z,996.43
2023-01-11T00:57:44.115Z,996.46
2023-01-11T00:58:44.018Z,996.45
2023-01-11T00:59:43.968Z,996.45
2023-01-11T01:00:43.969Z,996.42
2023-01-11T01:01:44.073Z,996.42
2023-01-11T01:02:44.003Z,996.44
2023-01-11T01:03:43.998Z,996.45
2023-01-11T01:04:43.927Z,996.48
2023-01-11T01:05:43.898Z,996.54
2023-01-11T01:06:43.945Z,996.56
2023-01-11T01:07:43.912Z,996.55
2023-01-11T01:08:43.959Z,996.54
2023-01-11T01:09:43.869Z,996.54
2023-01-11T01:10:43.874Z,996.63
2023-01-11T01:11:43.833Z,996.51
2023-01-11T01:12:43.820Z,996.60
2023-01-11T01:13:43.856Z,996.56
2023-01-11T01:14:43.826Z,996.56
2023-01-11T01:15:43.806Z,996.64
2023-01-11T01:16:43.797Z,996.60
2023-01-11T01:17:43.781Z,996.61
2023-01-11T01:18:43.794Z,996.56
2023-01-11T01:19:43.728Z,996.60
2023-01-11T01:20:43.734Z,996.64
2023-01-11T01:21:43.710Z,996.70
2023-01-11T01:22:43.787Z,996.66
2023-01-11T01:23:43.716Z,996.65
2023-01-11T01:24:43.682Z,996.65
2023-01-11T01:25:43.656Z,996.59
2023-01-11T01:26:43.749Z,996.65
2023-01-11T01:27:43.674Z,996.51
2023-01-11T01:28:43.693Z,996.54
2023-01-11T01:29:43.628Z,996.57
2023-01-11T01:30:43.662Z,996.67
2023-01-11T01:31:43.607Z,996.50
2023-01-11T01:32:43.599Z,996.63
2023-01-11T01:33:43.654Z,996.51
2023-01-11T01:34:43.582Z,996.46
2023-01-11T01:35:43.636Z,996.42
2023-01-11T01:36:43.564Z,996.42
2023-01-11T01:37:43.561Z,996.37
2023-01-11T01:38:43.645Z,996.40
2023-01-11T01:39:43.548Z,996.47
2023-01-11T01:40:43.502Z,996.42
2023-01-11T01:41:43.503Z,996.41
2023-01-11T01:42:43.457Z,996.42
2023-01-11T01:43:43.581Z,996.43
2023-01-11T01:44:43.483Z,996.44
2023-01-11T01:45:43.537Z,996.45
2023-01-11T01:46:43.443Z,996.35
2023-01-11T01:47:43.406Z,996.33
2023-01-11T01:48:43.425Z,996.38
2023-01-11T01:49:43.379Z,996.24
2023-01-11T01:50:43.394Z,996.42
2023-01-11T01:51:43.388Z,996.38
2023-01-11T01:52:43.369Z,996.39
2023-01-11T01:53:43.332Z,996.30
2023-01-11T01:54:43.328Z,996.29
2023-01-11T01:55:43.418Z,996.20
2023-01-11T01:56:43.327Z,996.11
2023-01-11T01:57:43.279Z,996.22
2023-01-11T01:58:43.318Z,996.12
2023-01-11T01:59:43.269Z,996.20
2023-01-11T02:00:43.267Z,996.18
2023-01-11T02:01:43.734Z,996.25
2023-01-11T02:02:43.395Z,996.20
2023-01-11T02:03:43.209Z,996.22
2023-01-11T02:04:43.209Z,996.25
2023-01-11T02:05:43.180Z,996.09
2023-01-11T02:06:43.270Z,996.20
2023-01-11T02:07:43.200Z,996.17
2023-01-11T02:08:43.177Z,996.03
2023-01-11T02:09:43.157Z,996.14
2023-01-11T02:10:43.140Z,996.13
2023-01-11T02:11:43.139Z,996.17
2023-01-11T02:12:43.147Z,996.15
2023-01-11T02:13:43.093Z,996.02
2023-01-11T02:14:43.093Z,996.02
2023-01-11T02:15:43.159Z,996.00
2023-01-11T02:16:43.063Z,996.05
2023-01-11T02:17:43.063Z,996.00
2023-01-11T02:18:43.083Z,995.96
2023-01-11T02:19:43.048Z,996.03
2023-01-11T02:20:43.062Z,995.94
2023-01-11T02:21:43.021Z,996.01
2023-01-11T02:22:43.020Z,995.99
2023-01-11T02:23:42.975Z,996.00
2023-01-11T02:24:43.044Z,995.98
2023-01-11T02:25:42.990Z,996.01
2023-01-11T02:26:42.979Z,995.96
2023-01-11T02:27:42.952Z,995.93
2023-01-11T02:28:42.925Z,995.97
2023-01-11T02:29:42.921Z,995.95
2023-01-11T02:30:42.953Z,995.97
2023-01-11T02:31:42.910Z,996.03
2023-01-11T02:32:42.876Z,995.95
2023-01-11T02:33:42.884Z,995.97
2023-01-11T02:34:42.886Z,995.88
2023-01-11T02:35:42.844Z,995.91
2023-01-11T02:36:42.886Z,995.95
2023-01-11T02:37:42.814Z,995.78
2023-01-11T02:38:42.810Z,995.76
2023-01-11T02:39:42.787Z,995.89
2023-01-11T02:40:42.836Z,995.89
2023-01-11T02:41:42.784Z,995.84
2023-01-11T02:42:42.787Z,995.74
2023-01-11T02:43:42.746Z,995.77
2023-01-11T02:44:42.764Z,995.80
2023-01-11T02:45:42.742Z,995.80
2023-01-11T02:46:42.785Z,995.84
2023-01-11T02:47:42.835Z,995.82
2023-01-11T02:48:42.715Z,995.80
2023-01-11T02:49:42.673Z,995.85
2023-01-11T02:50:42.704Z,995.82
2023-01-11T02:51:42.660Z,995.86
2023-01-11T02:52:42.675Z,995.78
2023-01-11T02:53:42.650Z,995.86
2023-01-11T02:54:42.667Z,995.72
2023-01-11T02:55:42.623Z,995.72
2023-01-11T02:56:42.598Z,995.70
2023-01-11T02:57:42.630Z,995.82
2023-01-11T02:58:42.596Z,995.84
2023-01-11T02:59:42.585Z,995.75
2023-01-11T03:00:42.576Z,995.74
2023-01-11T03:01:42.565Z,995.82
2023-01-11T03:02:42.683Z,995.81
2023-01-11T03:03:42.530Z,995.74
2023-01-11T03:04:42.499Z,995.79
2023-01-11T03:05:42.508Z,995.76
2023-01-11T03:06:42.524Z,995.70
2023-01-11T03:07:42.462Z,995.67
2023-01-11T03:08:42.483Z,995.65
2023-01-11T03:09:42.464Z,995.69
2023-01-11T03:10:42.442Z,995.76
2023-01-11T03:11:42.458Z,995.65
2023-01-11T03:12:42.439Z,995.65
2023-01-11T03:13:42.413Z,995.69
2023-01-11T03:14:42.528Z,995.62
2023-01-11T03:15:42.456Z,995.56
2023-01-11T03:16:42.367Z,995.54
2023-01-11T03:17:42.345Z,995.54
2023-01-11T03:18:42.344Z,995.50
2023-01-11T03:19:42.330Z,995.54
2023-01-11T03:20:42.646Z,995.52
2023-01-11T03:21:42.291Z,995.54
2023-01-11T03:22:42.295Z,995.46
2023-01-11T03:23:42.292Z,995.47
2023-01-11T03:24:42.285Z,995.59
2023-01-11T03:25:42.258Z,995.45
2023-01-11T03:26:42.295Z,995.55
2023-01-11T03:27:42.227Z,995.51
2023-01-11T03:28:42.253Z,995.50
2023-01-11T03:29:42.234Z,995.39
2023-01-11T03:30:42.232Z,995.43
2023-01-11T03:31:42.257Z,995.47
2023-01-11T03:32:42.205Z,995.47
2023-01-11T03:33:42.148Z,995.43
2023-01-11T03:34:42.148Z,995.49
2023-01-11T03:35:42.126Z,995.48
2023-01-11T03:36:42.184Z,995.49
2023-01-11T03:37:42.138Z,995.45
2023-01-11T03:38:42.129Z,995.44
2023-01-11T03:39:42.116Z,995.40
2023-01-11T03:40:42.080Z,995.38
2023-01-11T03:41:42.089Z,995.38
2023-01-11T03:42:42.116Z,995.41
2023-01-11T03:43:42.029Z,995.43
2023-01-11T03:44:42.038Z,995.41
2023-01-11T03:45:42.011Z,995.45
2023-01-11T03:46:42.081Z,995.45
2023-01-11T03:47:42.038Z,995.40
2023-01-11T03:48:42.016Z,995.42
2023-01-11T03:49:41.970Z,995.41
2023-01-11T03:50:41.995Z,995.47
2023-01-11T03:51:42.008Z,995.46
2023-01-11T03:52:41.943Z,995.45
2023-01-11T03:53:41.939Z,995.45
2023-01-11T03:54:41.943Z,995.46
2023-01-11T03:55:41.915Z,995.46
2023-01-11T03:56:41.919Z,995.44
2023-01-11T03:57:41.952Z,995.40
2023-01-11T03:58:41.897Z,995.46
2023-01-11T03:59:41.854Z,995.45
2023-01-11T04:00:41.901Z,995.49
2023-01-11T04:01:41.823Z,995.47
2023-01-11T04:02:41.879Z,995.48
2023-01-11T04:03:41.815Z,995.50
2023-01-11T04:04:41.806Z,995.53
2023-01-11T04:05:41.802Z,995.51
2023-01-11T04:06:41.847Z,995.50
2023-01-11T04:07:41.753Z,995.51
2023-01-11T04:08:41.821Z,995.49
2023-01-11T04:09:41.769Z,995.40
2023-01-11T04:10:41.761Z,995.41
2023-01-11T04:11:41.705Z,995.36
2023-01-11T04:12:41.743Z,995.41
2023-01-11T04:13:41.693Z,995.40
2023-01-11T04:14:41.761Z,995.38
2023-01-11T04:15:41.671Z,995.42
2023-01-11T04:16:41.721Z,995.37
2023-01-11T04:17:41.636Z,995.43
2023-01-11T04:18:41.670Z,995.40
2023-01-11T04:19:41.614Z,995.35
2023-01-11T04:20:41.654Z,995.34
2023-01-11T04:21:41.628Z,995.35
2023-01-11T04:22:41.632Z,995.31
2023-01-11T04:23:41.595Z,995.39
2023-01-11T04:24:41.909Z,995.29
2023-01-11T04:25:41.545Z,995.27
2023-01-11T04:26:41.557Z,995.26
2023-01-11T04:27:41.545Z,995.27
2023-01-11T04:28:41.522Z,995.29
2023-01-11T04:29:41.496Z,995.30
2023-01-11T04:30:41.659Z,995.28
2023-01-11T04:31:41.515Z,995.32
2023-01-11T04:32:41.480Z,995.31
2023-01-11T04:33:41.475Z,995.29
2023-01-11T04:34:41.475Z,995.28
2023-01-11T04:35:41.453Z,995.31
2023-01-11T04:36:41.648Z,995.25
2023-01-11T04:37:41.404Z,995.30
2023-01-11T04:38:41.432Z,995.18
2023-01-11T04:39:41.405Z,995.17
2023-01-11T04:40:41.411Z,995.26
2023-01-11T04:41:41.400Z,995.18
2023-01-11T04:42:41.430Z,995.28
2023-01-11T04:43:41.332Z,995.12
2023-01-11T04:44:41.438Z,995.15
2023-01-11T04:45:41.358Z,995.13
2023-01-11T04:46:41.311Z,995.16
2023-01-11T04:47:48.594Z,995.13
2023-01-11T04:48:41.285Z,995.15
2023-01-11T04:49:41.274Z,995.16
2023-01-11T04:50:41.343Z,995.02
2023-01-11T04:51:41.266Z,995.02
2023-01-11T04:52:41.237Z,995.14
2023-01-11T04:53:41.249Z,995.12
2023-01-11T04:54:41.312Z,995.14
2023-01-11T04:55:41.193Z,995.18
2023-01-11T04:56:41.230Z,995.13
2023-01-11T04:57:41.165Z,995.12
2023-01-11T04:58:41.215Z,995.08
2023-01-11T04:59:41.152Z,995.02
2023-01-11T05:00:41.259Z,995.00
2023-01-11T05:01:41.307Z,995.02
2023-01-11T05:02:41.135Z,995.05
2023-01-11T05:03:41.193Z,995.03
2023-01-11T05:04:41.174Z,995.04
2023-01-11T05:05:41.104Z,994.99
2023-01-11T05:06:41.140Z,994.93
2023-01-11T05:07:41.075Z,995.00
2023-01-11T05:08:41.056Z,995.04
2023-01-11T05:09:41.105Z,995.02
2023-01-11T05:10:41.063Z,995.00
2023-01-11T05:11:41.016Z,994.92
2023-01-11T05:12:41.024Z,995.05
2023-01-11T05:13:40.999Z,995.01
2023-01-11T05:14:40.997Z,994.99
2023-01-11T05:15:41.015Z,994.99
2023-01-11T05:16:40.977Z,995.03
2023-01-11T05:17:40.968Z,995.04
2023-01-11T05:18:40.940Z,995.02
2023-01-11T05:19:40.993Z,995.01
2023-01-11T05:20:40.929Z,994.99
2023-01-11T05:21:46.397Z,995.02
2023-01-11T05:22:40.893Z,995.02
2023-01-11T05:23:40.898Z,994.94
2023-01-11T05:24:40.905Z,994.97
2023-01-11T05:25:41.040Z,995.08
2023-01-11T05:26:41.162Z,995.05
2023-01-11T05:27:40.827Z,995.06
2023-01-11T05:28:40.832Z,995.01
2023-01-11T05:29:40.845Z,995.00
2023-01-11T05:30:40.827Z,995.09
2023-01-11T05:31:40.891Z,995.07
2023-01-11T05:32:40.811Z,995.04
2023-01-11T05:33:40.789Z,995.03
2023-01-11T05:34:40.753Z,995.04
2023-01-11T05:35:40.752Z,995.03
2023-01-11T05:36:40.824Z,995.02
2023-01-11T05:37:40.732Z,994.97
2023-01-11T05:38:40.714Z,994.99
2023-01-11T05:39:40.684Z,995.09
2023-01-11T05:40:40.687Z,995.03
2023-01-11T05:41:40.693Z,995.05
2023-01-11T05:42:40.720Z,995.00
2023-01-11T05:43:40.643Z,994.98
2023-01-11T05:44:40.675Z,994.97
2023-01-11T05:45:40.687Z,994.96
2023-01-11T05:46:40.684Z,995.00
2023-01-11T05:47:40.628Z,994.98
2023-01-11T05:48:40.596Z,994.97
2023-01-11T05:49:40.612Z,994.98
2023-01-11T05:50:40.621Z,994.97
2023-01-11T05:51:40.583Z,994.91
2023-01-11T05:52:40.576Z,994.96
2023-01-11T05:53:40.556Z,994.88
2023-01-11T05:54:40.554Z,994.95
2023-01-11T05:55:40.507Z,994.96
2023-01-11T05:56:40.570Z,994.95
2023-01-11T05:57:40.477Z,994.90
2023-01-11T05:58:40.507Z,994.94
2023-01-11T05:59:40.506Z,994.97
2023-01-11T06:00:40.480Z,994.95
2023-01-11T06:01:40.499Z,994.98
2023-01-11T06:02:40.528Z,994.96
2023-01-11T06:03:40.451Z,994.95
2023-01-11T06:04:40.426Z,994.98
2023-01-11T06:05:40.423Z,994.97
2023-01-11T06:06:40.425Z,994.96
2023-01-11T06:07:40.417Z,994.91
2023-01-11T06:08:40.375Z,994.94
2023-01-11T06:09:40.379Z,994.92
2023-01-11T06:10:40.360Z,994.87
2023-01-11T06:11:40.378Z,994.89
2023-01-11T06:12:40.334Z,995.02
2023-01-11T06:13:40.321Z,994.99
2023-01-11T06:14:40.325Z,994.94
2023-01-11T06:15:40.291Z,995.00
2023-01-11T06:16:40.344Z,994.99
2023-01-11T06:17:40.291Z,994.97
2023-01-11T06:18:40.300Z,995.03
2023-01-11T06:19:40.243Z,995.03
2023-01-11T06:20:40.248Z,995.08
2023-01-11T06:21:40.223Z,994.99
2023-01-11T06:22:40.211Z,995.00
2023-01-11T06:23:40.293Z,994.98
2023-01-11T06:24:40.202Z,995.00
2023-01-11T06:25:40.171Z,995.07
2023-01-11T06:26:40.154Z,995.15
2023-01-11T06:27:40.170Z,995.02
2023-01-11T06:28:40.158Z,995.00
2023-01-11T06:29:40.184Z,995.03
2023-01-11T06:30:40.128Z,995.02
2023-01-11T06:31:40.121Z,994.95
2023-01-11T06:32:40.101Z,995.02
2023-01-11T06:33:40.086Z,995.01
2023-01-11T06:34:40.093Z,994.99
2023-01-11T06:35:40.220Z,994.93
2023-01-11T06:36:42.325Z,994.96
2023-01-11T06:37:40.030Z,994.93
2023-01-11T06:38:40.047Z,994.92
2023-01-11T06:39:40.073Z,994.88
2023-01-11T06:40:39.989Z,994.87
2023-01-11T06:41:40.042Z,994.92
2023-01-11T06:42:40.098Z,994.86
2023-01-11T06:43:39.994Z,994.87
2023-01-11T06:44:46.428Z,994.87
2023-01-11T06:45:40.005Z,994.91
2023-01-11T06:46:40.039Z,994.91
2023-01-11T06:47:39.947Z,994.98
2023-01-11T06:48:39.925Z,994.93
2023-01-11T06:49:39.927Z,994.91
2023-01-11T06:50:39.909Z,994.94
2023-01-11T06:51:39.896Z,994.92
2023-01-11T06:52:39.860Z,995.01
2023-01-11T06:53:39.863Z,994.99
2023-01-11T06:54:39.829Z,994.97
2023-01-11T06:55:39.891Z,994.90
2023-01-11T06:56:39.811Z,994.98
2023-01-11T06:57:39.805Z,994.93
2023-01-11T06:58:39.815Z,995.03
2023-01-11T06:59:39.779Z,995.01
2023-01-11T07:00:39.800Z,994.97
2023-01-11T07:01:39.827Z,994.94
2023-01-11T07:02:39.762Z,994.97
2023-01-11T07:03:39.735Z,995.00
2023-01-11T07:04:39.713Z,995.00
2023-01-11T07:05:39.732Z,995.03
2023-01-11T07:06:39.697Z,995.01
2023-01-11T07:07:39.702Z,995.06
2023-01-11T07:08:39.676Z,995.03
2023-01-11T07:09:39.673Z,995.09
2023-01-11T07:10:39.699Z,995.18
2023-01-11T07:11:39.655Z,995.08
2023-01-11T07:12:39.625Z,995.19
2023-01-11T07:13:39.657Z,995.18
2023-01-11T07:14:39.606Z,995.27
2023-01-11T07:15:39.742Z,995.32
2023-01-11T07:16:39.583Z,995.32
2023-01-11T07:17:39.585Z,995.30
2023-01-11T07:18:39.585Z,995.24
2023-01-11T07:19:39.581Z,995.34
2023-01-11T07:20:39.531Z,995.33
2023-01-11T07:21:39.545Z,995.37
2023-01-11T07:22:39.535Z,995.46
2023-01-11T07:23:39.549Z,995.39
2023-01-11T07:24:39.486Z,995.43
2023-01-11T07:25:39.493Z,995.42
2023-01-11T07:26:39.458Z,995.45
2023-01-11T07:27:39.536Z,995.45
2023-01-11T07:28:39.438Z,995.47
2023-01-11T07:29:39.465Z,995.41
2023-01-11T07:30:56.761Z,995.47
2023-01-11T07:31:40.519Z,995.52
2023-01-11T07:32:39.417Z,995.51
2023-01-11T07:33:39.428Z,995.57
2023-01-11T07:34:39.368Z,995.51
2023-01-11T07:35:39.395Z,995.58
2023-01-11T07:36:39.378Z,995.59
2023-01-11T07:37:39.359Z,995.60
2023-01-11T07:38:39.376Z,995.56
2023-01-11T07:39:43.843Z,995.56
2023-01-11T07:40:39.357Z,995.59
2023-01-11T07:41:39.362Z,995.55
2023-01-11T07:42:39.299Z,995.60
2023-01-11T07:43:39.272Z,995.62
2023-01-11T07:44:39.338Z,995.69
2023-01-11T07:45:45.902Z,995.67
2023-01-11T07:46:40.364Z,995.67
2023-01-11T07:47:39.232Z,995.68
2023-01-11T07:48:39.203Z,995.66
2023-01-11T07:49:39.240Z,995.66
2023-01-11T07:50:39.230Z,995.72
2023-01-11T07:51:39.202Z,995.72
2023-01-11T07:52:39.154Z,995.81
2023-01-11T07:53:39.162Z,995.82
2023-01-11T07:54:39.138Z,995.82
2023-01-11T07:55:39.160Z,995.85
2023-01-11T07:56:39.125Z,995.91
2023-01-11T07:57:39.144Z,995.89
2023-01-11T07:58:39.111Z,995.91
2023-01-11T07:59:39.113Z,995.97
2023-01-11T08:00:39.087Z,995.96
2023-01-11T08:01:39.092Z,996.00
2023-01-11T08:02:39.146Z,996.00
2023-01-11T08:03:39.179Z,996.00
2023-01-11T08:04:39.046Z,996.06
2023-01-11T08:05:39.033Z,996.04
2023-01-11T08:06:39.028Z,995.96
2023-01-11T08:07:39.031Z,995.90
2023-01-11T08:08:39.015Z,995.84
2023-01-11T08:09:38.968Z,995.69
2023-01-11T08:10:41.244Z,995.65
2023-01-11T08:11:39.100Z,995.56
2023-01-11T08:12:38.955Z,995.53
2023-01-11T08:13:38.931Z,995.67
2023-01-11T08:14:38.901Z,995.72
2023-01-11T08:15:39.070Z,995.71
2023-01-11T08:16:38.910Z,995.74
2023-01-11T08:17:38.890Z,995.72
2023-01-11T08:18:38.856Z,995.79
2023-01-11T08:19:38.860Z,995.83
2023-01-11T08:20:38.843Z,995.78
2023-01-11T08:21:38.888Z,995.81
2023-01-11T08:22:38.810Z,995.89
2023-01-11T08:23:38.814Z,995.88
2023-01-11T08:24:38.794Z,995.93
2023-01-11T08:25:38.798Z,995.89
2023-01-11T08:26:38.835Z,995.92
2023-01-11T08:27:40.619Z,995.97
2023-01-11T08:28:38.752Z,995.94
2023-01-11T08:29:38.852Z,996.02
2023-01-11T08:30:38.721Z,995.98
2023-01-11T08:31:38.780Z,996.04
2023-01-11T08:32:38.695Z,996.10
2023-01-11T08:33:38.722Z,996.10
2023-01-11T08:34:38.691Z,996.09
2023-01-11T08:35:38.669Z,996.06
2023-01-11T08:36:38.684Z,996.07
2023-01-11T08:37:38.701Z,996.01
2023-01-11T08:38:38.650Z,996.06
2023-01-11T08:39:38.645Z,996.07
2023-01-11T08:40:38.609Z,996.04
2023-01-11T08:41:38.606Z,996.04
2023-01-11T08:42:38.612Z,996.02
2023-01-11T08:43:38.614Z,996.07
2023-01-11T08:44:38.585Z,996.10
2023-01-11T08:45:38.590Z,996.08
2023-01-11T08:46:38.550Z,996.06
2023-01-11T08:47:38.633Z,996.11
2023-01-11T08:48:38.510Z,996.09
2023-01-11T08:49:38.509Z,996.01
2023-01-11T08:50:38.485Z,996.04
2023-01-11T08:51:38.545Z,996.10
2023-01-11T08:52:38.486Z,996.17
2023-01-11T08:53:38.458Z,996.21
2023-01-11T08:54:38.457Z,996.23
2023-01-11T08:55:38.438Z,996.27
2023-01-11T08:56:38.475Z,996.27
2023-01-11T08:57:38.490Z,996.35
2023-01-11T08:58:38.415Z,996.36
2023-01-11T08:59:38.415Z,996.37
2023-01-11T09:00:38.391Z,996.40
2023-01-11T09:01:38.488Z,996.37
2023-01-11T09:02:38.383Z,996.43
2023-01-11T09:03:38.366Z,996.46
2023-01-11T09:04:38.369Z,996.52
2023-01-11T09:05:38.322Z,996.50
2023-01-11T09:06:38.303Z,996.49
2023-01-11T09:07:38.411Z,996.46
2023-01-11T09:08:38.282Z,996.42
2023-01-11T09:09:38.297Z,996.42
2023-01-11T09:10:38.267Z,996.45
2023-01-11T09:11:38.291Z,996.51
2023-01-11T09:12:38.248Z,996.62
2023-01-11T09:13:38.253Z,996.61
2023-01-11T09:14:38.208Z,996.69
2023-01-11T09:15:38.224Z,996.73
2023-01-11T09:16:38.218Z,996.70
2023-01-11T09:17:38.233Z,996.68
2023-01-11T09:18:38.208Z,996.67
2023-01-11T09:19:38.199Z,996.68
2023-01-11T09:20:38.153Z,996.66
2023-01-11T09:21:38.136Z,996.68
2023-01-11T09:22:38.183Z,996.76
2023-01-11T09:23:38.132Z,996.68
2023-01-11T09:24:38.131Z,996.79
2023-01-11T09:25:38.110Z,996.80
2023-01-11T09:26:38.129Z,996.86
2023-01-11T09:27:38.098Z,996.80
2023-01-11T09:28:38.028Z,996.86
2023-01-11T09:29:38.204Z,996.98
2023-01-11T09:30:38.032Z,996.94
2023-01-11T09:31:38.109Z,997.05
2023-01-11T09:32:37.988Z,997.07
2023-01-11T09:33:38.017Z,997.11
2023-01-11T09:34:37.982Z,997.14
2023-01-11T09:35:38.015Z,997.21
2023-01-11T09:36:37.936Z,997.22
2023-01-11T09:37:37.977Z,997.22
2023-01-11T09:38:37.910Z,997.24
2023-01-11T09:39:37.944Z,997.22
2023-01-11T09:40:37.888Z,997.14
2023-01-11T09:41:37.935Z,997.14
2023-01-11T09:42:38.081Z,997.14
2023-01-11T09:43:37.889Z,997.10
2023-01-11T09:44:37.866Z,997.06
2023-01-11T09:45:37.854Z,997.25
2023-01-11T09:46:37.871Z,997.29
2023-01-11T09:47:37.840Z,997.30
2023-01-11T09:48:37.904Z,997.30
2023-01-11T09:49:37.819Z,997.31
2023-01-11T09:50:37.772Z,997.34
2023-01-11T09:51:37.796Z,997.29
2023-01-11T09:52:37.773Z,997.30
2023-01-11T09:53:37.779Z,997.33
2023-01-11T09:54:37.745Z,997.40
2023-01-11T09:55:37.769Z,997.47
2023-01-11T09:56:37.694Z,997.52
2023-01-11T09:57:37.733Z,997.48
2023-01-11T09:58:37.693Z,997.52
2023-01-11T09:59:37.688Z,997.51
2023-01-11T10:00:37.718Z,997.48
2023-01-11T10:01:37.671Z,997.49
2023-01-11T10:02:37.661Z,997.50
2023-01-11T10:03:37.645Z,997.58
2023-01-11T10:04:37.722Z,997.57
2023-01-11T10:05:37.613Z,997.55
2023-01-11T10:06:37.602Z,997.55
2023-01-11T10:07:37.630Z,997.59
2023-01-11T10:18:22.821Z,997.72
2023-01-11T10:18:30.185Z,997.74
2023-01-11T10:18:40.322Z,997.77
2023-01-11T10:29:34.658Z,997.69
2023-01-11T10:30:34.669Z,997.68
2023-01-11T10:31:34.646Z,997.69
2023-01-11T10:32:36.316Z,997.61
2023-01-11T10:33:34.624Z,997.57
2023-01-11T10:34:34.588Z,997.63
2023-01-11T10:35:34.579Z,997.62
2023-01-11T10:36:34.589Z,997.59
2023-01-11T10:37:34.549Z,997.71
2023-01-11T10:38:34.596Z,997.75
2023-01-11T10:39:34.523Z,997.82
2023-01-11T10:40:34.550Z,997.80
2023-01-11T10:41:34.500Z,997.85
2023-01-11T10:42:41.519Z,997.75
2023-01-11T10:43:34.479Z,997.76
2023-01-11T10:44:34.565Z,997.68
2023-01-11T10:45:34.531Z,997.72
2023-01-11T10:46:34.476Z,997.76
2023-01-11T10:47:34.443Z,997.76
2023-01-11T10:48:34.475Z,997.77
2023-01-11T10:49:35.909Z,997.80
2023-01-11T10:50:34.480Z,997.82
2023-01-11T10:51:34.430Z,997.89
2023-01-11T10:52:34.418Z,997.86
2023-01-11T10:53:34.392Z,997.96
2023-01-11T10:54:34.371Z,997.97
2023-01-11T10:55:34.480Z,998.01
2023-01-11T10:56:34.343Z,997.92
2023-01-11T10:57:34.325Z,998.00
2023-01-11T10:58:34.350Z,997.99
2023-01-11T10:59:34.320Z,997.95
2023-01-11T11:00:34.390Z,998.00
2023-01-11T11:01:34.330Z,997.96
2023-01-11T11:02:34.345Z,997.92
2023-01-11T11:03:34.287Z,997.87
2023-01-11T11:04:34.251Z,997.91
2023-01-11T11:05:55.264Z,997.97
2023-01-11T11:06:34.408Z,997.91
2023-01-11T11:07:34.233Z,997.91
2023-01-11T11:08:34.285Z,997.92
2023-01-11T11:09:34.194Z,997.93
2023-01-11T11:10:34.312Z,997.97
2023-01-11T11:11:34.177Z,997.95
2023-01-11T11:12:34.156Z,997.92
2023-01-11T11:13:34.158Z,998.02
2023-01-11T11:14:34.212Z,998.01
2023-01-11T11:15:34.170Z,998.01
2023-01-11T11:16:34.358Z,997.98
2023-01-11T11:17:34.123Z,997.97
2023-01-11T11:18:34.076Z,997.98
2023-01-11T11:19:34.106Z,998.04
2023-01-11T11:20:34.074Z,998.01
2023-01-11T11:21:34.062Z,998.00
2023-01-11T11:22:34.029Z,998.00
2023-01-11T11:23:34.054Z,997.94
2023-01-11T11:24:34.109Z,997.97
2023-01-11T11:25:34.036Z,998.00
2023-01-11T11:26:34.012Z,998.02
2023-01-11T11:27:33.979Z,998.05
2023-01-11T11:28:34.003Z,997.99
2023-01-11T11:29:33.984Z,998.03
2023-01-11T11:30:33.975Z,998.11
2023-01-11T11:31:33.975Z,998.18
2023-01-11T11:32:36.441Z,998.18
2023-01-11T11:33:33.939Z,998.19
2023-01-11T11:34:33.921Z,998.23
2023-01-11T11:35:33.971Z,998.27
2023-01-11T11:36:33.865Z,998.31
2023-01-11T11:37:33.902Z,998.36
2023-01-11T11:38:33.869Z,998.30
2023-01-11T11:39:33.870Z,998.35
2023-01-11T11:40:33.843Z,998.23
2023-01-11T11:41:33.891Z,998.39
2023-01-11T11:42:33.815Z,998.40
2023-01-11T11:43:33.835Z,998.38
2023-01-11T11:44:33.771Z,998.32
2023-01-11T11:45:33.829Z,998.39
2023-01-11T11:46:33.769Z,998.33
2023-01-11T11:47:33.765Z,998.39
2023-01-11T11:48:33.724Z,998.35
2023-01-11T11:49:33.722Z,998.36
2023-01-11T11:50:49.146Z,998.40
2023-01-11T11:51:34.722Z,998.38
2023-01-11T11:52:33.711Z,998.37
2023-01-11T11:53:33.695Z,998.38
2023-01-11T11:54:33.697Z,998.33
2023-01-11T11:55:33.680Z,998.33
2023-01-11T11:56:33.629Z,998.36
2023-01-11T11:57:33.674Z,998.39
2023-01-11T11:58:33.619Z,998.33
2023-01-11T11:59:33.603Z,998.41
2023-01-11T12:00:33.575Z,998.41
2023-01-11T12:01:33.604Z,998.32
2023-01-11T12:02:33.665Z,998.41
2023-01-11T12:03:33.560Z,998.43
2023-01-11T12:04:33.551Z,998.46
2023-01-11T12:05:33.537Z,998.47
2023-01-11T12:06:33.532Z,998.43
2023-01-11T12:07:36.106Z,998.39
2023-01-11T12:08:33.500Z,998.37
2023-01-11T12:09:33.586Z,998.41
2023-01-11T12:10:33.544Z,998.30
2023-01-11T12:11:33.459Z,998.38
2023-01-11T12:12:33.456Z,998.35
2023-01-11T12:13:33.479Z,998.42
2023-01-11T12:14:33.400Z,998.34
2023-01-11T12:15:33.433Z,998.36
2023-01-11T12:16:33.409Z,998.39
2023-01-11T12:17:33.400Z,998.28
2023-01-11T12:18:33.429Z,998.28
2023-01-11T12:19:33.368Z,998.30
2023-01-11T12:20:33.366Z,998.34
2023-01-11T12:21:33.397Z,998.28
2023-01-11T12:22:33.337Z,998.37
2023-01-11T12:23:33.330Z,998.41
2023-01-11T12:24:33.308Z,998.41
2023-01-11T12:25:33.295Z,998.40
2023-01-11T12:26:33.322Z,998.32
2023-01-11T12:27:33.263Z,998.37
2023-01-11T12:28:33.239Z,998.38
2023-01-11T12:29:33.245Z,998.43
2023-01-11T12:30:33.271Z,998.38
2023-01-11T12:31:33.309Z,998.39
2023-01-11T12:32:33.235Z,998.35
2023-01-11T12:33:33.195Z,998.39
2023-01-11T12:34:33.214Z,998.35
2023-01-11T12:35:33.174Z,998.31
2023-01-11T12:36:33.190Z,998.28
2023-01-11T12:37:33.155Z,998.29
2023-01-11T12:38:33.131Z,998.25
2023-01-11T12:39:33.161Z,998.24
2023-01-11T12:40:33.145Z,998.26
2023-01-11T12:41:33.150Z,998.28
2023-01-11T12:42:33.077Z,998.27
2023-01-11T12:43:33.088Z,998.23
2023-01-11T12:44:33.074Z,998.27
2023-01-11T12:45:33.073Z,998.26
2023-01-11T12:46:33.285Z,998.21